Time;durP1;ratioP1;P1;durP2;ratioP2;P2;SDS_P1;SDS_P2;PMS_P1;PMS_P2;Temp;Humidity;BMP_temperature;BMP_pressure;BME280_temperature;BME280_humidity;BME280_pressure;Samples;Min_cycle;Max_cycle;Signal;HPM_P1;HPM_P2
2022/09/21 00:01:18;;;;;;;;;;;8.20;99.90;;;;;;5081384;28;20576;-72
2022/09/21 00:03:45;;;;;;;;;;;8.20;99.90;;;;;;5079626;28;19967;-72
2022/09/21 00:06:13;;;;;;;;;;;8.10;99.90;;;;;;5076041;28;20023;-72
2022/09/21 00:08:41;;;;;;;;;;;8.10;99.90;;;;;;5081567;28;19924;-72
2022/09/21 00:11:11;;;;;;;;;;;8.10;99.90;;;;;;5074877;28;19967;-72
2022/09/21 00:13:38;;;;;;;;;;;8.00;99.90;;;;;;5076639;28;20018;-72
2022/09/21 00:16:06;;;;;;;;;;;8.10;99.90;;;;;;5076205;28;19951;-72
2022/09/21 00:18:34;;;;;;;;;;;8.10;99.90;;;;;;5079385;28;19974;-72
2022/09/21 00:21:01;;;;;;;;;;;8.10;99.90;;;;;;5087371;28;19936;-73
2022/09/21 00:23:28;;;;;;;;;;;8.00;99.90;;;;;;5082180;28;19925;-72
2022/09/21 00:26:05;;;;;;;;;;;8.00;99.90;;;;;;5078741;28;19932;-72
2022/09/21 00:28:32;;;;;;;;;;;8.00;99.90;;;;;;5081799;28;20019;-72
2022/09/21 00:31:00;;;;;;;;;;;8.00;99.90;;;;;;5080271;28;19946;-72
2022/09/21 00:33:27;;;;;;;;;;;8.00;99.90;;;;;;5078458;28;19935;-72
2022/09/21 00:35:54;;;;;;;;;;;8.00;99.90;;;;;;5080953;28;19925;-72
2022/09/21 00:38:21;;;;;;;;;;;7.90;99.90;;;;;;5076683;28;20452;-72
2022/09/21 00:40:47;;;;;;;;;;;7.90;99.90;;;;;;5072010;28;19975;-72
2022/09/21 00:43:17;;;;;;;;;;;7.90;99.90;;;;;;5083324;28;20019;-72
2022/09/21 00:45:44;;;;;;;;;;;7.90;99.90;;;;;;5087902;28;19975;-72
2022/09/21 00:48:11;;;;;;;;;;;7.90;99.90;;;;;;5082212;28;20436;-72
2022/09/21 00:50:39;;;;;;;;;;;7.90;99.90;;;;;;5091020;28;20015;-71
2022/09/21 00:53:06;;;;;;;;;;;7.90;99.90;;;;;;5082130;28;19928;-72
2022/09/21 00:55:36;;;;;;;;;;;7.80;99.90;;;;;;5080838;28;20418;-72
2022/09/21 00:58:07;;;;;;;;;;;7.80;99.90;;;;;;5076804;28;20020;-72
2022/09/21 01:00:35;;;;;;;;;;;7.80;99.90;;;;;;5092169;28;20382;-72
2022/09/21 01:03:02;;;;;;;;;;;7.80;99.90;;;;;;5082850;28;20019;-72
2022/09/21 01:05:29;;;;;;;;;;;7.80;99.90;;;;;;5084016;28;20373;-72
2022/09/21 01:07:56;;;;;;;;;;;7.80;99.90;;;;;;5074354;28;19960;-72
2022/09/21 01:10:24;;;;;;;;;;;7.70;99.90;;;;;;5080953;28;20031;-72
2022/09/21 01:12:56;;;;;;;;;;;7.70;99.90;;;;;;5076679;28;20358;-71
2022/09/21 01:15:28;;;;;;;;;;;7.70;99.90;;;;;;5081886;28;20019;-71
2022/09/21 01:18:01;;;;;;;;;;;7.70;99.90;;;;;;5086899;28;19955;-71
2022/09/21 01:20:49;;;;;;;;;;;7.60;99.90;;;;;;5073124;28;19928;-71
2022/09/21 01:23:23;;;;;;;;;;;7.60;99.90;;;;;;5082648;28;19963;-71
2022/09/21 01:26:00;;;;;;;;;;;7.50;99.90;;;;;;5076892;28;19956;-72
2022/09/21 01:28:31;;;;;;;;;;;7.50;99.90;;;;;;5080281;28;20001;-72
2022/09/21 01:31:04;;;;;;;;;;;7.40;99.90;;;;;;5074284;28;20031;-72
2022/09/21 01:33:36;;;;;;;;;;;7.30;99.90;;;;;;5082315;28;19924;-72
2022/09/21 01:36:04;;;;;;;;;;;7.30;99.90;;;;;;5087415;28;19977;-72
2022/09/21 01:38:33;;;;;;;;;;;7.40;99.90;;;;;;5075739;28;20011;-71
2022/09/21 01:41:03;;;;;;;;;;;7.40;99.90;;;;;;5071459;28;20516;-71
2022/09/21 01:43:32;;;;;;;;;;;7.40;99.90;;;;;;5084066;28;19959;-72
2022/09/21 01:46:01;;;;;;;;;;;7.30;99.90;;;;;;5086509;28;19932;-72
2022/09/21 01:48:31;;;;;;;;;;;7.30;99.90;;;;;;5077375;28;20379;-72
2022/09/21 01:50:59;;;;;;;;;;;7.30;99.90;;;;;;5071687;28;19983;-71
2022/09/21 01:53:27;;;;;;;;;;;7.30;99.90;;;;;;5078202;28;19972;-71
2022/09/21 01:55:56;;;;;;;;;;;7.30;99.90;;;;;;5086779;28;19924;-72
2022/09/21 01:58:26;;;;;;;;;;;7.20;99.90;;;;;;5083234;28;20035;-72
2022/09/21 02:00:55;;;;;;;;;;;7.20;99.90;;;;;;5077936;28;20608;-72
2022/09/21 02:03:27;;;;;;;;;;;7.20;99.90;;;;;;5077530;28;20007;-71
2022/09/21 02:05:53;;;;;;;;;;;7.20;99.90;;;;;;5075401;28;20435;-71
2022/09/21 02:08:20;;;;;;;;;;;7.20;99.90;;;;;;5082201;28;19924;-72
2022/09/21 02:10:48;;;;;;;;;;;7.20;99.90;;;;;;5074280;28;20019;-72
2022/09/21 02:13:15;;;;;;;;;;;7.10;99.90;;;;;;5079944;28;19960;-72
2022/09/21 02:15:48;;;;;;;;;;;7.10;99.90;;;;;;5085333;28;19932;-71
2022/09/21 02:18:19;;;;;;;;;;;7.20;99.90;;;;;;5080779;28;19927;-71
2022/09/21 02:20:53;;;;;;;;;;;7.10;99.90;;;;;;5074064;28;22905;-72
2022/09/21 02:23:23;;;;;;;;;;;7.10;99.90;;;;;;5080472;28;20015;-72
2022/09/21 02:25:52;;;;;;;;;;;7.20;99.90;;;;;;5085386;28;19932;-71
2022/09/21 02:28:24;;;;;;;;;;;7.20;99.90;;;;;;5084265;28;19928;-71
2022/09/21 02:30:56;;;;;;;;;;;7.20;99.90;;;;;;5075515;28;20375;-71
2022/09/21 02:33:25;;;;;;;;;;;7.20;99.90;;;;;;5081418;28;19924;-71
2022/09/21 02:35:54;;;;;;;;;;;7.20;99.90;;;;;;5082987;28;19931;-72
2022/09/21 02:38:25;;;;;;;;;;;7.20;99.90;;;;;;5078014;28;19938;-72
2022/09/21 02:40:53;;;;;;;;;;;7.10;99.90;;;;;;5082393;28;20298;-73
2022/09/21 02:43:22;;;;;;;;;;;7.10;99.90;;;;;;5085934;28;19936;-71
2022/09/21 02:45:51;;;;;;;;;;;7.20;99.90;;;;;;5081974;28;19931;-72
2022/09/21 02:48:18;;;;;;;;;;;7.10;99.90;;;;;;5090871;28;19932;-72
2022/09/21 02:50:47;;;;;;;;;;;7.10;99.90;;;;;;5080488;28;19931;-72
2022/09/21 02:53:18;;;;;;;;;;;7.10;99.90;;;;;;5088309;28;19924;-71
2022/09/21 02:55:48;;;;;;;;;;;7.10;99.90;;;;;;5081424;28;20007;-71
2022/09/21 02:58:16;;;;;;;;;;;7.20;99.90;;;;;;5086392;28;19924;-71
2022/09/21 03:00:43;;;;;;;;;;;7.10;99.90;;;;;;5095548;28;20026;-71
2022/09/21 03:03:16;;;;;;;;;;;7.10;99.90;;;;;;5090646;28;19924;-71
2022/09/21 03:05:44;;;;;;;;;;;7.10;99.90;;;;;;5086375;28;21141;-71
2022/09/21 03:08:10;;;;;;;;;;;7.00;99.90;;;;;;5092594;28;19924;-72
2022/09/21 03:10:39;;;;;;;;;;;7.00;99.90;;;;;;5087381;28;19939;-71
2022/09/21 03:13:06;;;;;;;;;;;7.00;99.90;;;;;;5081012;28;19932;-72
2022/09/21 03:15:33;;;;;;;;;;;7.00;99.90;;;;;;5079461;28;20050;-71
2022/09/21 03:17:59;;;;;;;;;;;7.00;99.90;;;;;;5088392;28;19932;-71
2022/09/21 03:20:26;;;;;;;;;;;7.00;99.90;;;;;;5087885;28;19924;-72
2022/09/21 03:22:53;;;;;;;;;;;7.00;99.90;;;;;;5086676;28;19924;-71
2022/09/21 03:25:19;;;;;;;;;;;6.90;99.90;;;;;;5085403;28;20401;-72
2022/09/21 03:27:47;;;;;;;;;;;6.90;99.90;;;;;;5089809;28;19939;-72
2022/09/21 03:30:14;;;;;;;;;;;6.90;99.90;;;;;;5095950;28;19930;-71
2022/09/21 03:32:40;;;;;;;;;;;6.90;99.90;;;;;;5088879;28;19969;-70
2022/09/21 03:35:07;;;;;;;;;;;6.90;99.90;;;;;;5084918;28;19932;-70
2022/09/21 03:37:34;;;;;;;;;;;6.80;99.90;;;;;;5088181;28;20018;-71
2022/09/21 03:40:01;;;;;;;;;;;6.80;99.90;;;;;;5084951;28;19931;-71
2022/09/21 03:42:28;;;;;;;;;;;6.70;99.90;;;;;;5089511;28;20393;-71
2022/09/21 03:44:56;;;;;;;;;;;6.80;99.90;;;;;;5084596;28;20022;-71
2022/09/21 03:47:22;;;;;;;;;;;6.80;99.90;;;;;;5088877;28;20383;-71
2022/09/21 03:49:49;;;;;;;;;;;6.80;99.90;;;;;;5079883;28;19929;-70
2022/09/21 03:52:15;;;;;;;;;;;6.70;99.90;;;;;;5091066;28;19932;-70
2022/09/21 03:54:42;;;;;;;;;;;6.80;99.90;;;;;;5084670;28;19924;-70
2022/09/21 03:57:09;;;;;;;;;;;6.70;99.90;;;;;;5082771;28;19925;-70
2022/09/21 03:59:35;;;;;;;;;;;6.70;99.90;;;;;;5086457;28;19924;-72
2022/09/21 04:02:03;;;;;;;;;;;6.70;99.90;;;;;;5087402;28;20286;-71
2022/09/21 04:04:30;;;;;;;;;;;6.70;99.90;;;;;;5085483;28;19924;-71
2022/09/21 04:06:58;;;;;;;;;;;6.70;99.90;;;;;;5076737;28;20003;-70
2022/09/21 04:09:24;;;;;;;;;;;6.70;99.90;;;;;;5088832;28;19931;-72
2022/09/21 04:11:52;;;;;;;;;;;6.70;99.90;;;;;;5089407;28;19932;-70
2022/09/21 04:14:18;;;;;;;;;;;6.70;99.90;;;;;;5085114;28;19925;-70
2022/09/21 04:16:45;;;;;;;;;;;6.60;99.90;;;;;;5087004;28;19932;-70
2022/09/21 04:19:13;;;;;;;;;;;6.60;99.90;;;;;;5087157;28;19956;-71
2022/09/21 04:21:40;;;;;;;;;;;6.60;99.90;;;;;;5083031;28;19939;-71
2022/09/21 04:24:06;;;;;;;;;;;6.50;99.90;;;;;;5086125;28;19931;-71
2022/09/21 04:26:34;;;;;;;;;;;6.60;99.90;;;;;;5089255;28;19928;-71
2022/09/21 04:29:00;;;;;;;;;;;6.60;99.90;;;;;;5081831;28;20406;-70
2022/09/21 04:31:28;;;;;;;;;;;6.60;99.90;;;;;;5086734;28;20389;-71
2022/09/21 04:33:55;;;;;;;;;;;6.50;99.90;;;;;;5088526;28;19932;-70
2022/09/21 04:36:24;;;;;;;;;;;6.40;99.90;;;;;;5077546;28;19947;-70
2022/09/21 04:38:51;;;;;;;;;;;6.30;99.90;;;;;;5085685;28;19924;-71
2022/09/21 04:41:18;;;;;;;;;;;6.30;99.90;;;;;;5086860;28;20436;-71
2022/09/21 04:43:45;;;;;;;;;;;6.30;99.90;;;;;;5084264;28;20039;-70
2022/09/21 04:46:13;;;;;;;;;;;6.40;99.90;;;;;;5086762;28;19924;-70
2022/09/21 04:48:40;;;;;;;;;;;6.50;99.90;;;;;;5077236;28;19924;-70
2022/09/21 04:51:07;;;;;;;;;;;6.50;99.90;;;;;;5087582;28;19924;-71
2022/09/21 04:53:36;;;;;;;;;;;6.50;99.90;;;;;;5088360;28;19928;-70
2022/09/21 04:56:03;;;;;;;;;;;6.40;99.90;;;;;;5074185;28;19981;-69
2022/09/21 04:58:29;;;;;;;;;;;6.30;99.90;;;;;;5078117;28;19932;-70
2022/09/21 05:00:56;;;;;;;;;;;6.40;99.90;;;;;;5085571;28;20319;-72
2022/09/21 05:03:23;;;;;;;;;;;6.40;99.90;;;;;;5076716;28;20389;-72
2022/09/21 05:05:50;;;;;;;;;;;6.30;99.90;;;;;;5083906;28;20355;-73
2022/09/21 05:10:01;;;;;;;;;;;6.30;99.90;;;;;;5085107;28;20646;-73
2022/09/21 05:11:04;;;;;;;;;;;6.30;99.90;;;;;;5080320;28;19933;-73
2022/09/21 05:13:31;;;;;;;;;;;6.40;99.90;;;;;;5080971;28;19925;-73
2022/09/21 05:15:57;;;;;;;;;;;6.40;99.90;;;;;;5074914;28;19939;-73
2022/09/21 05:18:24;;;;;;;;;;;6.40;99.90;;;;;;5072170;28;19932;-73
2022/09/21 05:20:53;;;;;;;;;;;6.40;99.90;;;;;;5083170;28;19972;-73
2022/09/21 05:23:20;;;;;;;;;;;6.40;99.90;;;;;;5069876;28;20303;-73
2022/09/21 05:25:46;;;;;;;;;;;6.50;99.90;;;;;;5074521;28;19932;-74
2022/09/21 05:28:15;;;;;;;;;;;6.40;99.90;;;;;;5076887;28;19942;-73
2022/09/21 05:30:42;;;;;;;;;;;6.40;99.90;;;;;;5081112;28;19939;-73
2022/09/21 05:33:12;;;;;;;;;;;6.40;99.90;;;;;;5085211;28;20361;-74
2022/09/21 05:35:42;;;;;;;;;;;6.50;99.90;;;;;;5076398;28;19977;-74
2022/09/21 05:38:12;;;;;;;;;;;6.50;99.90;;;;;;5083529;28;20364;-74
2022/09/21 05:40:39;;;;;;;;;;;6.50;99.90;;;;;;5076644;28;20575;-73
2022/09/21 05:43:07;;;;;;;;;;;6.50;99.90;;;;;;5079678;28;20019;-74
2022/09/21 05:45:37;;;;;;;;;;;6.40;99.90;;;;;;5079987;28;19924;-74
2022/09/21 05:48:09;;;;;;;;;;;6.50;99.90;;;;;;5074757;28;19925;-73
2022/09/21 05:50:49;;;;;;;;;;;6.50;99.90;;;;;;5081939;28;19985;-74
2022/09/21 05:53:23;;;;;;;;;;;6.50;99.90;;;;;;5074374;28;19924;-73
2022/09/21 05:55:55;;;;;;;;;;;6.50;99.90;;;;;;5077229;28;20036;-73
2022/09/21 05:58:26;;;;;;;;;;;6.50;99.90;;;;;;5065884;28;20019;-73
2022/09/21 06:01:00;;;;;;;;;;;6.50;99.90;;;;;;5060303;28;21297;-73
2022/09/21 06:03:28;;;;;;;;;;;6.60;99.90;;;;;;5068325;28;19935;-73
2022/09/21 06:05:55;;;;;;;;;;;6.60;99.90;;;;;;5062494;28;19933;-74
2022/09/21 06:08:22;;;;;;;;;;;6.60;99.90;;;;;;5070774;28;20357;-73
2022/09/21 06:10:48;;;;;;;;;;;6.60;99.90;;;;;;5089487;28;19932;-74
2022/09/21 06:13:15;;;;;;;;;;;6.40;99.90;;;;;;5090396;28;19924;-75
2022/09/21 06:15:42;;;;;;;;;;;6.40;99.90;;;;;;5093852;28;20015;-74
2022/09/21 06:18:10;;;;;;;;;;;6.40;99.90;;;;;;5081531;28;20353;-73
2022/09/21 06:20:37;;;;;;;;;;;6.50;99.90;;;;;;5075156;28;19924;-74
2022/09/21 06:23:04;;;;;;;;;;;6.50;99.90;;;;;;5078422;28;19924;-74
2022/09/21 06:25:30;;;;;;;;;;;6.50;99.90;;;;;;5080310;28;20295;-75
2022/09/21 06:28:01;;;;;;;;;;;6.60;99.90;;;;;;5080567;28;19924;-74
2022/09/21 06:30:27;;;;;;;;;;;6.70;99.90;;;;;;5093064;28;19930;-74
2022/09/21 06:32:54;;;;;;;;;;;6.90;99.90;;;;;;5089609;28;20375;-74
2022/09/21 06:35:22;;;;;;;;;;;7.00;99.90;;;;;;5078737;28;19929;-74
2022/09/21 06:37:49;;;;;;;;;;;7.20;99.90;;;;;;5066751;28;19932;-74
2022/09/21 06:40:16;;;;;;;;;;;7.30;99.90;;;;;;5074534;28;20017;-74
2022/09/21 06:42:42;;;;;;;;;;;7.50;99.90;;;;;;5073937;28;19931;-74
2022/09/21 06:45:09;;;;;;;;;;;7.60;99.90;;;;;;5077350;28;20015;-76
2022/09/21 06:47:36;;;;;;;;;;;7.70;99.90;;;;;;5074684;28;19924;-75
2022/09/21 06:50:03;;;;;;;;;;;7.60;99.90;;;;;;5074126;28;19999;-75
2022/09/21 06:52:31;;;;;;;;;;;7.80;99.90;;;;;;5074523;28;19924;-75
2022/09/21 06:54:58;;;;;;;;;;;8.00;99.90;;;;;;5067130;28;19932;-75
2022/09/21 06:57:25;;;;;;;;;;;8.10;99.90;;;;;;5072604;28;19932;-75
2022/09/21 06:59:51;;;;;;;;;;;8.00;99.90;;;;;;5073584;28;20303;-75
2022/09/21 07:02:18;;;;;;;;;;;8.00;99.90;;;;;;5072593;28;19931;-75
2022/09/21 07:04:45;;;;;;;;;;;8.20;99.90;;;;;;5074479;28;19943;-75
2022/09/21 07:07:11;;;;;;;;;;;8.20;99.90;;;;;;5081651;28;19924;-76
2022/09/21 07:09:40;;;;;;;;;;;8.30;99.90;;;;;;5076861;28;19971;-76
2022/09/21 07:12:07;;;;;;;;;;;8.40;99.90;;;;;;5078003;28;20027;-76
2022/09/21 07:14:33;;;;;;;;;;;8.50;99.90;;;;;;5075689;28;19928;-75
2022/09/21 07:17:00;;;;;;;;;;;8.60;99.90;;;;;;5077683;28;20368;-76
2022/09/21 07:19:27;;;;;;;;;;;8.70;99.90;;;;;;5088011;28;19924;-76
2022/09/21 07:21:54;;;;;;;;;;;8.90;99.90;;;;;;5080471;28;19960;-75
2022/09/21 07:24:21;;;;;;;;;;;9.10;99.90;;;;;;5072420;28;19928;-77
2022/09/21 07:26:49;;;;;;;;;;;9.40;99.90;;;;;;5082103;28;20303;-76
2022/09/21 07:29:16;;;;;;;;;;;10.00;99.90;;;;;;5084459;28;19977;-76
2022/09/21 07:31:43;;;;;;;;;;;11.30;99.90;;;;;;5084668;28;20098;-74
2022/09/21 07:34:10;;;;;;;;;;;12.80;99.90;;;;;;5080943;28;19968;-74
2022/09/21 07:36:36;;;;;;;;;;;15.50;99.90;;;;;;5079909;28;20004;-73
2022/09/21 07:39:04;;;;;;;;;;;17.50;99.90;;;;;;5080331;28;19995;-73
2022/09/21 07:41:30;;;;;;;;;;;19.20;99.70;;;;;;5086162;28;19924;-73
2022/09/21 07:43:58;;;;;;;;;;;19.70;92.10;;;;;;5080126;28;20027;-74
2022/09/21 07:46:25;;;;;;;;;;;20.00;95.30;;;;;;5086727;28;20338;-74
2022/09/21 07:48:53;;;;;;;;;;;19.90;90.10;;;;;;5087795;28;19950;-74
2022/09/21 07:51:20;;;;;;;;;;;18.70;93.30;;;;;;5082540;28;19932;-73
2022/09/21 07:53:46;;;;;;;;;;;17.20;98.00;;;;;;5092613;28;20022;-74
2022/09/21 07:56:15;;;;;;;;;;;18.80;97.30;;;;;;5076773;28;20641;-73
2022/09/21 08:01:28;;;;;;;;;;;21.60;85.70;;;;;;5072236;28;20064;-74
2022/09/21 08:03:56;;;;;;;;;;;22.50;78.30;;;;;;5080374;28;20589;-74
2022/09/21 08:06:23;;;;;;;;;;;21.90;73.70;;;;;;5075472;28;20554;-75
2022/09/21 08:08:50;;;;;;;;;;;21.20;79.60;;;;;;5079293;28;20027;-74
2022/09/21 08:11:18;;;;;;;;;;;22.60;74.20;;;;;;5077208;28;19931;-73
2022/09/21 08:13:45;;;;;;;;;;;22.90;70.50;;;;;;5078978;28;19924;-73
2022/09/21 08:16:11;;;;;;;;;;;22.50;67.30;;;;;;5076789;28;19967;-75
2022/09/21 08:18:40;;;;;;;;;;;21.90;76.20;;;;;;5083921;28;19939;-77
2022/09/21 08:21:08;;;;;;;;;;;21.00;73.50;;;;;;5083536;28;19924;-77
2022/09/21 08:23:39;;;;;;;;;;;21.80;78.70;;;;;;5077922;28;19924;-77
2022/09/21 08:26:06;;;;;;;;;;;22.60;71.70;;;;;;5081355;28;19932;-73
2022/09/21 08:28:34;;;;;;;;;;;22.90;69.80;;;;;;5082771;28;20032;-74
2022/09/21 08:31:01;;;;;;;;;;;23.80;65.00;;;;;;5084198;28;20362;-75
2022/09/21 08:33:28;;;;;;;;;;;23.80;58.30;;;;;;5082654;28;19932;-76
2022/09/21 08:35:57;;;;;;;;;;;23.20;61.50;;;;;;5081264;28;19936;-74
2022/09/21 08:38:24;;;;;;;;;;;21.80;59.00;;;;;;5081290;28;20708;-74
2022/09/21 08:40:52;;;;;;;;;;;19.70;71.70;;;;;;5081238;28;19928;-74
2022/09/21 08:43:23;;;;;;;;;;;18.10;88.50;;;;;;5078013;28;19963;-75
2022/09/21 08:45:50;;;;;;;;;;;18.30;92.80;;;;;;5071521;28;19925;-74
2022/09/21 08:48:20;;;;;;;;;;;18.80;91.90;;;;;;5078972;28;20302;-74
2022/09/21 08:50:48;;;;;;;;;;;21.60;86.40;;;;;;5078477;28;19924;-74
2022/09/21 08:53:18;;;;;;;;;;;23.40;70.30;;;;;;5083132;28;20038;-73
2022/09/21 08:55:44;;;;;;;;;;;23.50;59.90;;;;;;5077877;28;19924;-73
2022/09/21 08:58:20;;;;;;;;;;;24.50;55.00;;;;;;5071424;28;19924;-74
2022/09/21 09:00:47;;;;;;;;;;;25.10;49.10;;;;;;5074099;28;19925;-74
2022/09/21 09:03:32;;;;;;;;;;;24.60;45.30;;;;;;5077626;28;20011;-73
2022/09/21 09:06:01;;;;;;;;;;;22.50;50.20;;;;;;5071059;28;19959;-73
2022/09/21 09:08:55;;;;;;;;;;;21.60;55.50;;;;;;5077370;28;20367;-75
2022/09/21 09:11:30;;;;;;;;;;;21.90;52.20;;;;;;5076868;28;19924;-73
2022/09/21 09:14:05;;;;;;;;;;;20.70;56.20;;;;;;5073034;28;20027;-73
2022/09/21 09:16:36;;;;;;;;;;;22.70;51.00;;;;;;5069816;28;19932;-73
2022/09/21 09:19:09;;;;;;;;;;;22.70;49.70;;;;;;5081492;28;19975;-73
2022/09/21 09:21:38;;;;;;;;;;;23.60;50.60;;;;;;5071211;28;20009;-73
2022/09/21 09:24:10;;;;;;;;;;;23.70;46.20;;;;;;5074508;28;20322;-74
2022/09/21 09:26:41;;;;;;;;;;;24.10;46.30;;;;;;5075445;28;20354;-68
2022/09/21 09:29:14;;;;;;;;;;;24.10;46.60;;;;;;5073997;28;19960;-71
2022/09/21 09:31:41;;;;;;;;;;;21.30;64.50;;;;;;5069779;28;19924;-74
2022/09/21 09:34:11;;;;;;;;;;;20.50;70.70;;;;;;5073160;28;19924;-75
2022/09/21 09:36:40;;;;;;;;;;;18.90;73.50;;;;;;5071002;28;20302;-75
2022/09/21 09:39:12;;;;;;;;;;;19.10;77.30;;;;;;5082190;28;20015;-75
2022/09/21 09:41:56;;;;;;;;;;;20.30;82.90;;;;;;5068914;28;19940;-75
2022/09/21 09:44:44;;;;;;;;;;;21.00;79.80;;;;;;5075202;28;19928;-75
2022/09/21 09:47:16;;;;;;;;;;;20.30;80.40;;;;;;5065088;28;19928;-74
2022/09/21 09:49:53;;;;;;;;;;;19.20;88.70;;;;;;5076787;28;19925;-77
2022/09/21 09:52:21;;;;;;;;;;;19.20;89.00;;;;;;5074897;28;19925;-76
2022/09/21 09:54:49;;;;;;;;;;;18.80;88.70;;;;;;5084202;28;19930;-76
2022/09/21 09:57:20;;;;;;;;;;;20.10;82.90;;;;;;5076404;28;19967;-77
2022/09/21 09:59:49;;;;;;;;;;;20.00;82.70;;;;;;5071774;28;19943;-73
2022/09/21 10:02:20;;;;;;;;;;;19.10;82.90;;;;;;5080079;28;20649;-74
2022/09/21 10:04:54;;;;;;;;;;;17.60;90.00;;;;;;5077469;28;20255;-73
2022/09/21 10:07:33;;;;;;;;;;;16.40;94.20;;;;;;5075471;28;19928;-75
2022/09/21 10:10:02;;;;;;;;;;;15.90;99.90;;;;;;5074555;28;19975;-74
2022/09/21 10:12:29;;;;;;;;;;;15.80;99.90;;;;;;5069703;28;19943;-73
2022/09/21 10:14:59;;;;;;;;;;;15.50;99.90;;;;;;5074546;28;19928;-70
2022/09/21 10:17:26;;;;;;;;;;;15.60;99.90;;;;;;5078112;28;19924;-72
2022/09/21 10:19:59;;;;;;;;;;;15.70;99.90;;;;;;5080669;28;19926;-70
2022/09/21 10:22:26;;;;;;;;;;;15.70;99.90;;;;;;5072004;28;19931;-74
2022/09/21 10:24:53;;;;;;;;;;;16.20;99.90;;;;;;5075359;28;19932;-78
2022/09/21 10:27:24;;;;;;;;;;;16.40;99.90;;;;;;5074901;28;19932;-77
2022/09/21 10:29:51;;;;;;;;;;;16.00;99.90;;;;;;5071058;28;19931;-77
2022/09/21 10:32:22;;;;;;;;;;;16.10;99.90;;;;;;5072527;28;19924;-75
2022/09/21 10:35:03;;;;;;;;;;;16.50;99.90;;;;;;5073687;28;20319;-77
2022/09/21 10:37:32;;;;;;;;;;;15.90;99.90;;;;;;5077869;28;19931;-77
2022/09/21 10:39:59;;;;;;;;;;;15.90;99.90;;;;;;5078030;28;20293;-76
2022/09/21 10:42:30;;;;;;;;;;;16.10;99.90;;;;;;5074471;28;20383;-78
2022/09/21 10:45:04;;;;;;;;;;;16.10;99.90;;;;;;5078194;28;19989;-78
2022/09/21 10:47:33;;;;;;;;;;;16.40;99.90;;;;;;5073336;28;19931;-74
2022/09/21 10:50:02;;;;;;;;;;;16.10;99.90;;;;;;5083125;28;20392;-76
2022/09/21 10:52:33;;;;;;;;;;;15.90;99.90;;;;;;5078702;28;19928;-76
2022/09/21 10:55:00;;;;;;;;;;;15.80;99.90;;;;;;5080975;28;20027;-78
2022/09/21 10:57:29;;;;;;;;;;;16.50;99.90;;;;;;5078947;28;20406;-77
2022/09/21 10:59:56;;;;;;;;;;;17.20;99.60;;;;;;5078942;28;19931;-77
2022/09/21 11:02:29;;;;;;;;;;;16.80;98.10;;;;;;5077013;28;20371;-76
2022/09/21 11:04:59;;;;;;;;;;;17.00;97.80;;;;;;5079486;28;20381;-77
2022/09/21 11:07:30;;;;;;;;;;;16.70;97.00;;;;;;5079555;28;20409;-75
2022/09/21 11:09:58;;;;;;;;;;;16.20;98.00;;;;;;5073787;28;20310;-75
2022/09/21 11:12:33;;;;;;;;;;;15.90;98.80;;;;;;5083009;28;19932;-76
2022/09/21 11:15:03;;;;;;;;;;;15.70;97.60;;;;;;5082026;28;19975;-76
2022/09/21 11:17:34;;;;;;;;;;;15.70;95.30;;;;;;5078540;28;19928;-75
2022/09/21 11:20:05;;;;;;;;;;;15.70;96.30;;;;;;5076531;28;19978;-76
2022/09/21 11:22:35;;;;;;;;;;;15.60;96.00;;;;;;5081447;28;20339;-80
2022/09/21 11:25:07;;;;;;;;;;;15.80;94.70;;;;;;5079674;28;19994;-77
2022/09/21 11:27:37;;;;;;;;;;;16.00;94.40;;;;;;5083803;28;19935;-76
2022/09/21 11:30:06;;;;;;;;;;;16.20;93.80;;;;;;5081129;28;20310;-76
2022/09/21 11:32:41;;;;;;;;;;;16.70;94.10;;;;;;5076047;28;19983;-76
2022/09/21 11:35:26;;;;;;;;;;;17.10;93.40;;;;;;5084228;28;19924;-79
2022/09/21 11:38:05;;;;;;;;;;;17.10;91.80;;;;;;5080506;28;20019;-74
2022/09/21 11:40:46;;;;;;;;;;;16.70;91.40;;;;;;5090510;28;20272;-76
2022/09/21 11:43:24;;;;;;;;;;;16.70;91.20;;;;;;5082141;28;19934;-78
2022/09/21 11:45:58;;;;;;;;;;;16.50;92.70;;;;;;5088522;28;20370;-77
2022/09/21 11:48:29;;;;;;;;;;;16.40;93.20;;;;;;5087073;28;19931;-77
2022/09/21 11:51:01;;;;;;;;;;;16.60;92.60;;;;;;5085134;28;19934;-78
2022/09/21 11:53:32;;;;;;;;;;;16.70;92.20;;;;;;5082188;28;20402;-77
2022/09/21 11:56:13;;;;;;;;;;;17.10;93.10;;;;;;5079187;28;19961;-78
2022/09/21 11:58:45;;;;;;;;;;;16.90;91.50;;;;;;5081098;28;20031;-75
2022/09/21 12:01:18;;;;;;;;;;;17.30;91.20;;;;;;5077344;28;19935;-77
2022/09/21 12:04:06;;;;;;;;;;;16.50;88.50;;;;;;5078876;28;20405;-76
2022/09/21 12:06:38;;;;;;;;;;;16.50;90.20;;;;;;5073989;28;19947;-77
2022/09/21 12:09:23;;;;;;;;;;;17.10;90.20;;;;;;5074573;28;19931;-74
2022/09/21 12:11:54;;;;;;;;;;;17.40;90.80;;;;;;5076926;28;19928;-77
2022/09/21 12:14:27;;;;;;;;;;;17.80;89.00;;;;;;5075949;28;20491;-76
2022/09/21 12:16:57;;;;;;;;;;;17.30;87.90;;;;;;5074782;28;21311;-77
2022/09/21 12:19:31;;;;;;;;;;;17.20;90.10;;;;;;5078161;28;20164;-77
2022/09/21 12:22:03;;;;;;;;;;;17.10;89.80;;;;;;5076917;28;19930;-78
2022/09/21 12:24:31;;;;;;;;;;;17.00;90.40;;;;;;5074411;28;20278;-77
2022/09/21 12:27:01;;;;;;;;;;;17.30;90.50;;;;;;5074472;28;20266;-77
2022/09/21 12:29:33;;;;;;;;;;;17.70;90.40;;;;;;5078213;28;20541;-76
2022/09/21 12:32:08;;;;;;;;;;;18.00;90.00;;;;;;5076693;28;19924;-74
2022/09/21 12:34:40;;;;;;;;;;;18.20;89.10;;;;;;5077029;28;19928;-78
2022/09/21 12:37:10;;;;;;;;;;;18.20;86.30;;;;;;5077776;28;19969;-76
2022/09/21 12:39:42;;;;;;;;;;;18.60;83.00;;;;;;5076398;28;19924;-71
2022/09/21 12:42:22;;;;;;;;;;;18.60;78.00;;;;;;5075687;28;19930;-73
2022/09/21 12:44:53;;;;;;;;;;;18.80;73.00;;;;;;5078497;28;19924;-76
2022/09/21 12:47:23;;;;;;;;;;;18.80;69.80;;;;;;5076104;28;20375;-67
2022/09/21 12:49:56;;;;;;;;;;;18.90;68.70;;;;;;5077957;28;19939;-80
2022/09/21 12:52:24;;;;;;;;;;;19.00;66.00;;;;;;5059845;28;19978;-79
2022/09/21 12:54:55;;;;;;;;;;;19.30;66.40;;;;;;5081592;28;19944;-76
2022/09/21 12:57:26;;;;;;;;;;;19.30;66.60;;;;;;5070090;28;19944;-74
2022/09/21 12:59:59;;;;;;;;;;;19.60;65.70;;;;;;5075892;28;19931;-76
2022/09/21 13:02:31;;;;;;;;;;;19.50;63.30;;;;;;5075391;28;19942;-79
2022/09/21 13:05:04;;;;;;;;;;;19.30;63.80;;;;;;5074517;28;19932;-78
2022/09/21 13:07:51;;;;;;;;;;;19.30;63.90;;;;;;5072685;28;19932;-79
2022/09/21 13:10:20;;;;;;;;;;;19.70;65.30;;;;;;5078632;28;19932;-78
2022/09/21 13:12:53;;;;;;;;;;;19.30;65.90;;;;;;5079775;28;19993;-78
2022/09/21 13:15:25;;;;;;;;;;;19.50;66.40;;;;;;5074377;28;19924;-81
2022/09/21 13:18:00;;;;;;;;;;;19.60;63.80;;;;;;5078998;28;19932;-83
2022/09/21 13:20:27;;;;;;;;;;;19.70;63.70;;;;;;5069547;28;19977;-83
2022/09/21 13:22:59;;;;;;;;;;;19.70;63.10;;;;;;5076586;28;19970;-79
2022/09/21 13:25:28;;;;;;;;;;;19.80;62.20;;;;;;5076179;28;19960;-81
2022/09/21 13:27:59;;;;;;;;;;;18.30;63.60;;;;;;5073046;28;19928;-82
2022/09/21 13:30:32;;;;;;;;;;;17.90;67.60;;;;;;5080153;28;20019;-83
2022/09/21 13:33:00;;;;;;;;;;;18.10;68.20;;;;;;5078152;28;20014;-82
2022/09/21 13:35:46;;;;;;;;;;;18.00;69.00;;;;;;5081734;28;20365;-80
2022/09/21 13:41:24;;;;;;;;;;;18.30;67.80;;;;;;5070901;28;19935;-82
2022/09/21 13:44:00;;;;;;;;;;;17.80;66.40;;;;;;5074841;28;19924;-82
2022/09/21 13:46:48;;;;;;;;;;;17.80;66.60;;;;;;5069876;28;19967;-82
2022/09/21 13:49:18;;;;;;;;;;;18.70;66.60;;;;;;5076983;28;19928;-79
2022/09/21 13:51:52;;;;;;;;;;;18.10;68.30;;;;;;5074481;28;19982;-83
2022/09/21 13:54:20;;;;;;;;;;;18.10;68.60;;;;;;5070686;28;20446;-81
2022/09/21 13:56:56;;;;;;;;;;;18.10;69.80;;;;;;5072939;28;20370;-81
2022/09/21 13:59:24;;;;;;;;;;;17.90;69.20;;;;;;5076135;28;19927;-82
2022/09/21 14:01:53;;;;;;;;;;;17.70;70.50;;;;;;5074582;28;19943;-80
2022/09/21 14:04:22;;;;;;;;;;;17.50;73.80;;;;;;5071161;28;19972;-82
2022/09/21 14:06:49;;;;;;;;;;;17.70;73.10;;;;;;5071367;28;19926;-78
2022/09/21 14:09:22;;;;;;;;;;;17.70;73.00;;;;;;5071484;28;19927;-76
2022/09/21 14:11:53;;;;;;;;;;;17.60;75.00;;;;;;5071642;28;20349;-77
2022/09/21 14:14:28;;;;;;;;;;;17.70;73.80;;;;;;5067301;28;20399;-78
2022/09/21 14:16:57;;;;;;;;;;;17.70;74.20;;;;;;5071557;28;21101;-80
2022/09/21 14:19:43;;;;;;;;;;;17.20;75.60;;;;;;5072469;28;19931;-80
2022/09/21 14:22:29;;;;;;;;;;;17.00;74.90;;;;;;5069344;28;19928;-81
2022/09/21 14:25:11;;;;;;;;;;;17.30;75.20;;;;;;5076550;28;19938;-81
2022/09/21 14:27:41;;;;;;;;;;;17.80;74.00;;;;;;5072243;28;19928;-79
2022/09/21 14:30:16;;;;;;;;;;;18.00;71.60;;;;;;5076804;28;19931;-77
2022/09/21 14:32:47;;;;;;;;;;;17.90;75.90;;;;;;5074297;28;19981;-74
2022/09/21 14:35:17;;;;;;;;;;;17.70;75.90;;;;;;5075361;28;20382;-72
2022/09/21 14:37:46;;;;;;;;;;;17.60;77.60;;;;;;5070274;28;20018;-70
2022/09/21 14:40:18;;;;;;;;;;;17.30;75.90;;;;;;5071346;28;19931;-70
2022/09/21 14:42:45;;;;;;;;;;;17.10;76.40;;;;;;5077357;28;19928;-70
2022/09/21 14:45:16;;;;;;;;;;;16.90;77.20;;;;;;5078866;28;19931;-71